Time;durP1;ratioP1;P1;durP2;ratioP2;P2;SDS_P1;SDS_P2;PMS_P1;PMS_P2;Temp;Humidity;BMP_temperature;BMP_pressure;BME280_temperature;BME280_humidity;BME280_pressure;Samples;Min_cycle;Max_cycle;Signal;HPM_P1;HPM_P2
2023/08/31 00:04:54;;;;;;;1999.90;999.90;;;;;;;12.76;100.00;100693.97;10461549;28;20049;-70
2023/08/31 00:09:56;;;;;;;1999.90;999.90;;;;;;;12.74;100.00;100698.47;10461235;28;20061;-69
2023/08/31 00:14:59;;;;;;;1999.90;999.90;;;;;;;12.54;100.00;100705.09;10461811;28;20124;-69
2023/08/31 00:20:05;;;;;;;1999.90;999.90;;;;;;;12.37;100.00;100703.59;10461553;28;20057;-69
2023/08/31 00:25:08;;;;;;;1999.90;999.90;;;;;;;12.32;100.00;100703.06;10460749;28;20055;-69
2023/08/31 00:30:11;;;;;;;1999.90;999.90;;;;;;;12.49;100.00;100705.41;10443271;28;20137;-69
2023/08/31 00:35:14;;;;;;;1999.90;999.90;;;;;;;12.33;100.00;100705.56;10460025;28;20485;-69
2023/08/31 00:40:16;;;;;;;1999.90;999.90;;;;;;;12.39;100.00;100713.06;10443137;28;20128;-70
2023/08/31 00:45:19;;;;;;;1999.90;999.90;;;;;;;12.37;100.00;100701.81;10460624;28;20055;-70
2023/08/31 00:50:21;;;;;;;1999.90;999.90;;;;;;;12.24;100.00;100695.69;10442773;28;20115;-69
2023/08/31 00:55:24;;;;;;;1999.90;999.90;;;;;;;12.24;100.00;100691.28;10441903;28;20059;-70
2023/08/31 01:00:48;;;;;;;1999.90;999.90;;;;;;;12.51;100.00;100686.91;10442307;28;20051;-69
2023/08/31 01:06:06;;;;;;;1999.90;999.90;;;;;;;12.17;100.00;100697.88;10394268;28;20081;-69
2023/08/31 01:11:22;;;;;;;1999.90;999.90;;;;;;;12.01;100.00;100711.16;10459477;28;20051;-69
2023/08/31 01:16:25;;;;;;;1999.90;999.90;;;;;;;12.29;100.00;100692.75;10441769;28;20048;-69
2023/08/31 01:21:36;;;;;;;1999.90;999.90;;;;;;;12.22;100.00;100706.28;10441463;28;20077;-69
2023/08/31 01:26:39;;;;;;;1999.90;999.90;;;;;;;12.23;100.00;100705.34;10459020;28;20061;-70
2023/08/31 01:31:43;;;;;;;1999.90;999.90;;;;;;;12.21;100.00;100715.09;10440142;28;20330;-69
2023/08/31 01:36:48;;;;;;;1999.90;999.90;;;;;;;12.21;100.00;100727.41;10441049;28;20049;-69
2023/08/31 01:41:58;;;;;;;1999.90;999.90;;;;;;;12.13;100.00;100721.81;10440764;28;20051;-69
2023/08/31 01:47:07;;;;;;;1999.90;999.90;;;;;;;12.37;100.00;100721.97;10439410;28;20485;-69
2023/08/31 01:52:09;;;;;;;1999.90;999.90;;;;;;;12.35;100.00;100719.44;10439618;28;20049;-69
2023/08/31 01:57:12;;;;;;;1999.90;999.90;;;;;;;12.45;100.00;100712.63;10457201;28;20408;-69
2023/08/31 02:02:14;;;;;;;1999.90;999.90;;;;;;;12.23;100.00;100725.50;10457695;28;20056;-69
2023/08/31 02:07:17;;;;;;;1999.90;999.90;;;;;;;12.37;100.00;100714.94;10456882;28;20444;-69
2023/08/31 02:12:19;;;;;;;1999.90;999.90;;;;;;;12.44;100.00;100707.50;10457245;28;20127;-69
2023/08/31 02:17:22;;;;;;;1999.90;999.90;;;;;;;12.69;100.00;100714.56;10438906;28;20137;-69
2023/08/31 02:22:24;;;;;;;1999.90;999.90;;;;;;;12.50;100.00;100720.22;10457051;28;20051;-70
2023/08/31 02:27:27;;;;;;;1999.90;999.90;;;;;;;12.67;100.00;100723.50;10456244;28;20053;-69
2023/08/31 02:32:29;;;;;;;1999.90;999.90;;;;;;;12.68;100.00;100707.63;10438190;28;20547;-70
2023/08/31 02:37:31;;;;;;;1999.90;999.90;;;;;;;12.74;100.00;100709.00;10456674;28;20053;-70
2023/08/31 02:42:34;;;;;;;1999.90;999.90;;;;;;;12.62;100.00;100708.03;10456613;28;20110;-69
2023/08/31 02:47:36;;;;;;;1999.90;999.90;;;;;;;12.67;100.00;100710.34;10455910;28;20542;-69
2023/08/31 02:52:39;;;;;;;1999.90;999.90;;;;;;;12.77;100.00;100717.50;10455705;28;20071;-69
2023/08/31 02:57:42;;;;;;;1999.90;999.90;;;;;;;12.51;100.00;100721.03;10442021;28;20049;-69
2023/08/31 03:02:44;;;;;;;1999.90;999.90;;;;;;;12.60;100.00;100718.66;10464598;28;20096;-69
2023/08/31 03:07:46;;;;;;;1999.90;999.90;;;;;;;12.88;100.00;100718.56;10464406;28;20091;-70
2023/08/31 03:12:49;;;;;;;1999.90;999.90;;;;;;;12.69;100.00;100716.34;10446540;28;20128;-69
2023/08/31 03:17:51;;;;;;;1999.90;999.90;;;;;;;12.69;100.00;100708.47;10463388;28;20128;-70
2023/08/31 03:22:53;;;;;;;1999.90;999.90;;;;;;;12.85;100.00;100724.88;10463818;28;20041;-69
2023/08/31 03:27:56;;;;;;;1999.90;999.90;;;;;;;12.78;100.00;100713.09;10462981;28;20406;-69
2023/08/31 03:32:58;;;;;;;1999.90;999.90;;;;;;;12.87;100.00;100699.34;10444999;28;20045;-69
2023/08/31 03:38:00;;;;;;;1999.90;999.90;;;;;;;12.80;100.00;100705.97;10444923;28;20565;-70
2023/08/31 03:43:03;;;;;;;1999.90;999.90;;;;;;;12.69;100.00;100698.78;10463106;28;20049;-70
2023/08/31 03:48:05;;;;;;;1999.90;999.90;;;;;;;12.94;100.00;100712.88;10462881;28;20072;-69
2023/08/31 03:53:08;;;;;;;1999.90;999.90;;;;;;;12.83;100.00;100713.63;10462644;28;20087;-70
2023/08/31 03:58:12;;;;;;;1999.90;999.90;;;;;;;12.67;100.00;100715.63;10462536;28;20131;-70
2023/08/31 04:03:15;;;;;;;1999.90;999.90;;;;;;;12.76;100.00;100709.72;10444619;28;20049;-69
2023/08/31 04:08:18;;;;;;;1999.90;999.90;;;;;;;12.62;100.00;100718.53;10461442;28;20045;-70
2023/08/31 04:13:20;;;;;;;1999.90;999.90;;;;;;;12.63;100.00;100722.88;10461188;28;20397;-70
2023/08/31 04:18:23;;;;;;;1999.90;999.90;;;;;;;13.01;100.00;100716.78;10461727;28;20059;-69
2023/08/31 04:23:25;;;;;;;1999.90;999.90;;;;;;;12.76;100.00;100736.84;10460863;28;20087;-69
2023/08/31 04:28:27;;;;;;;1999.90;999.90;;;;;;;12.80;100.00;100737.47;10443669;28;20083;-69
2023/08/31 04:33:30;;;;;;;1999.90;999.90;;;;;;;12.61;100.00;100740.53;10460093;28;20056;-69
2023/08/31 04:38:34;;;;;;;1999.90;999.90;;;;;;;12.68;100.00;100748.81;10460941;28;20059;-70
2023/08/31 04:43:36;;;;;;;1999.90;999.90;;;;;;;12.73;100.00;100752.00;10443054;28;20124;-69
2023/08/31 04:48:39;;;;;;;1999.90;999.90;;;;;;;12.72;100.00;100758.19;10494887;23;20055;-69
2023/08/31 04:53:41;;;;;;;1999.90;999.90;;;;;;;12.44;100.00;100757.41;10501108;28;20460;-71
2023/08/31 04:58:44;;;;;;;1999.90;999.90;;;;;;;12.33;100.00;100765.13;10501520;28;20059;-70
2023/08/31 05:03:46;;;;;;;1999.90;999.90;;;;;;;12.54;100.00;100766.34;10501381;28;20046;-70
2023/08/31 05:08:49;;;;;;;1999.90;999.90;;;;;;;12.57;100.00;100779.25;10499999;28;20083;-68
2023/08/31 05:13:51;;;;;;;1999.90;999.90;;;;;;;12.34;100.00;100796.53;10500850;28;20050;-68
2023/08/31 05:18:53;;;;;;;1999.90;999.90;;;;;;;12.42;100.00;100799.50;10499417;28;20056;-69
2023/08/31 05:23:56;;;;;;;1999.90;999.90;;;;;;;12.53;100.00;100804.03;10499045;28;20481;-69
2023/08/31 05:28:58;;;;;;;1999.90;999.90;;;;;;;12.38;100.00;100810.28;10500202;28;20056;-70
2023/08/31 05:34:01;;;;;;;1999.90;999.90;;;;;;;12.63;100.00;100806.91;10500040;28;20047;-69
2023/08/31 05:39:04;;;;;;;1999.90;999.90;;;;;;;12.56;100.00;100809.09;10499302;28;20532;-70
2023/08/31 05:44:06;;;;;;;1999.90;999.90;;;;;;;12.70;100.00;100812.59;10499797;28;20132;-70
2023/08/31 05:49:09;;;;;;;1999.90;999.90;;;;;;;12.41;100.00;100818.81;10498779;28;20060;-70
2023/08/31 05:54:13;;;;;;;1999.90;999.90;;;;;;;12.53;100.00;100829.47;10499257;28;20131;-70
2023/08/31 05:59:15;;;;;;;1999.90;999.90;;;;;;;12.80;100.00;100830.28;10498483;28;20048;-71
2023/08/31 06:04:17;;;;;;;1999.90;999.90;;;;;;;12.74;100.00;100830.69;10497814;28;20128;-70
2023/08/31 06:09:20;;;;;;;1999.90;999.90;;;;;;;12.88;100.00;100858.69;10498754;28;20044;-70
2023/08/31 06:14:22;;;;;;;1999.90;999.90;;;;;;;12.66;100.00;100858.38;10497449;28;20051;-69
2023/08/31 06:19:25;;;;;;;1999.90;999.90;;;;;;;13.05;100.00;100854.09;10498558;28;20075;-69
2023/08/31 06:24:27;;;;;;;1999.90;999.90;;;;;;;13.16;100.00;100852.44;10498278;28;20036;-68
2023/08/31 06:29:29;;;;;;;1999.90;999.90;;;;;;;13.66;100.00;100849.94;10498308;28;20048;-69
2023/08/31 06:34:32;;;;;;;1999.90;999.90;;;;;;;13.56;100.00;100862.03;10480216;28;20048;-69
2023/08/31 06:39:35;;;;;;;1999.90;999.90;;;;;;;13.57;100.00;100855.84;10497546;28;20420;-70
2023/08/31 06:44:38;;;;;;;1999.90;999.90;;;;;;;13.38;100.00;100857.09;10497552;28;20503;-70
2023/08/31 06:49:40;;;;;;;1999.90;999.90;;;;;;;13.67;100.00;100858.69;10497028;28;20405;-70
2023/08/31 06:54:42;;;;;;;1999.90;999.90;;;;;;;13.88;100.00;100859.78;10497861;28;20127;-70
2023/08/31 06:59:45;;;;;;;1999.90;999.90;;;;;;;14.12;100.00;100861.63;10497855;28;20109;-70
2023/08/31 07:04:48;;;;;;;1999.90;999.90;;;;;;;14.10;100.00;100871.44;10497090;28;20045;-70
2023/08/31 07:09:51;;;;;;;1999.90;999.90;;;;;;;13.94;100.00;100871.69;10496470;28;20052;-70
2023/08/31 07:14:53;;;;;;;1999.90;999.90;;;;;;;14.22;100.00;100880.25;10496775;28;20044;-71
2023/08/31 07:19:55;;;;;;;1999.90;999.90;;;;;;;14.24;100.00;100881.84;10495523;28;20049;-70
2023/08/31 07:24:58;;;;;;;1999.90;999.90;;;;;;;14.83;100.00;100893.44;10497195;28;20128;-70
2023/08/31 07:30:00;;;;;;;1999.90;999.90;;;;;;;14.77;100.00;100896.53;10495453;28;20083;-70
2023/08/31 07:35:04;;;;;;;1999.90;999.90;;;;;;;14.92;100.00;100902.47;10497048;28;20128;-70
2023/08/31 07:40:09;;;;;;;1999.90;999.90;;;;;;;14.62;100.00;100906.38;10496990;28;20061;-70
2023/08/31 07:45:12;;;;;;;1999.90;999.90;;;;;;;14.48;100.00;100910.84;10499495;28;20053;-70
2023/08/31 07:50:15;;;;;;;1999.90;999.90;;;;;;;14.75;100.00;100923.00;10503334;28;20055;-69
2023/08/31 07:55:17;;;;;;;1999.90;999.90;;;;;;;14.97;100.00;100921.41;10503985;28;20044;-70
2023/08/31 08:00:20;;;;;;;1999.90;999.90;;;;;;;15.37;100.00;100921.09;10503151;28;20057;-69
2023/08/31 08:05:22;;;;;;;1999.90;999.90;;;;;;;15.70;100.00;100919.44;10503003;28;20079;-69
2023/08/31 08:10:24;;;;;;;1999.90;999.90;;;;;;;15.23;100.00;100922.09;10502909;28;20489;-69
2023/08/31 08:15:27;;;;;;;1999.90;999.90;;;;;;;15.99;100.00;100925.16;10503216;28;20055;-70
2023/08/31 08:20:29;;;;;;;1999.90;999.90;;;;;;;15.92;100.00;100932.72;10503151;28;20081;-70
2023/08/31 08:25:32;;;;;;;1999.90;999.90;;;;;;;16.08;100.00;100924.41;10502296;28;20119;-70
2023/08/31 08:30:35;;;;;;;1999.90;999.90;;;;;;;16.45;100.00;100937.34;10501659;28;20054;-70
2023/08/31 08:35:38;;;;;;;1999.90;999.90;;;;;;;16.48;97.92;100923.06;10501800;28;20071;-70
2023/08/31 08:40:40;;;;;;;1999.90;999.90;;;;;;;16.45;96.79;100928.59;10501183;28;20048;-70
2023/08/31 08:45:44;;;;;;;1999.90;999.90;;;;;;;16.28;95.57;100930.75;10501489;28;20058;-70
2023/08/31 08:50:47;;;;;;;1999.90;999.90;;;;;;;17.82;91.39;100928.69;10500080;28;20136;-70
2023/08/31 08:55:49;;;;;;;1999.90;999.90;;;;;;;19.71;85.07;100931.31;10499665;28;20132;-70
2023/08/31 09:00:53;;;;;;;1999.90;999.90;;;;;;;19.28;80.88;100930.84;10501565;28;20049;-70
2023/08/31 09:05:55;;;;;;;1999.90;999.90;;;;;;;17.77;83.38;100933.56;10499599;28;20477;-70
2023/08/31 09:10:58;;;;;;;1999.90;999.90;;;;;;;17.98;83.03;100936.19;10500443;28;20496;-70
2023/08/31 09:16:00;;;;;;;1999.90;999.90;;;;;;;19.76;77.40;100929.09;10501008;28;20048;-70
2023/08/31 09:21:03;;;;;;;1999.90;999.90;;;;;;;19.53;72.87;100925.06;10500580;28;20052;-69
2023/08/31 09:26:06;;;;;;;1999.90;999.90;;;;;;;18.05;79.13;100927.72;10499703;28;20059;-68
2023/08/31 09:31:09;;;;;;;1999.90;999.90;;;;;;;17.89;79.05;100930.88;10498899;28;20080;-68
2023/08/31 09:36:11;;;;;;;1999.90;999.90;;;;;;;19.34;75.57;100934.75;10499909;28;20051;-68
2023/08/31 09:41:15;;;;;;;1999.90;999.90;;;;;;;18.54;77.26;100929.53;10499741;28;20106;-68
2023/08/31 09:46:17;;;;;;;1999.90;999.90;;;;;;;19.88;74.15;100935.06;10499703;28;20127;-68
2023/08/31 09:51:23;;;;;;;1999.90;999.90;;;;;;;22.40;66.60;100924.25;10497366;28;20109;-69
2023/08/31 09:56:28;;;;;;;1999.90;999.90;;;;;;;22.19;63.00;100921.97;10497651;28;20080;-68
2023/08/31 10:01:30;;;;;;;1999.90;999.90;;;;;;;21.84;61.71;100918.50;10499759;28;20052;-68
2023/08/31 10:06:33;;;;;;;1999.90;999.90;;;;;;;23.00;59.78;100921.31;10497861;28;20052;-68
2023/08/31 10:11:35;;;;;;;1999.90;999.90;;;;;;;23.53;61.59;100932.47;10498740;28;20128;-68
2023/08/31 10:16:40;;;;;;;1999.90;999.90;;;;;;;24.29;61.75;100922.25;10497559;28;20055;-68
2023/08/31 10:21:44;;;;;;;1999.90;999.90;;;;;;;25.17;60.19;100917.47;10496900;28;20511;-67
2023/08/31 10:26:46;;;;;;;1999.90;999.90;;;;;;;24.54;55.83;100924.75;10497948;28;20407;-67
2023/08/31 10:31:50;;;;;;;1999.90;999.90;;;;;;;24.40;53.76;100917.50;10498251;28;20045;-68
2023/08/31 10:36:52;;;;;;;1999.90;999.90;;;;;;;23.59;54.50;100920.31;10498228;28;20052;-67
2023/08/31 10:42:13;;;;;;;1999.90;999.90;;;;;;;22.48;59.30;100918.94;10497354;28;20098;-67
2023/08/31 10:47:15;;;;;;;1999.90;999.90;;;;;;;23.30;58.89;100919.00;10497270;28;20408;-68
2023/08/31 10:52:19;;;;;;;1999.90;999.90;;;;;;;25.26;50.60;100904.88;10498012;28;20045;-67
2023/08/31 10:57:31;;;;;;;1999.90;999.90;;;;;;;23.46;54.90;100899.44;10496811;28;20128;-68
2023/08/31 11:02:44;;;;;;;1999.90;999.90;;;;;;;22.41;58.67;100909.91;10497182;28;20420;-68
2023/08/31 11:07:49;;;;;;;1999.90;999.90;;;;;;;20.81;61.96;100921.69;10497096;28;20489;-68
2023/08/31 11:12:53;;;;;;;1999.90;999.90;;;;;;;21.08;63.87;100933.25;10496309;28;20098;-68
2023/08/31 11:17:56;;;;;;;1999.90;999.90;;;;;;;21.61;66.22;100932.34;10496700;28;20049;-68
2023/08/31 11:22:59;;;;;;;1999.90;999.90;;;;;;;22.35;62.22;100938.06;10503545;28;20409;-68
2023/08/31 11:28:07;;;;;;;1999.90;999.90;;;;;;;20.63;66.72;100937.66;10504013;28;20055;-67
2023/08/31 11:33:11;;;;;;;1999.90;999.90;;;;;;;19.33;70.00;100956.13;10503093;28;20457;-68
2023/08/31 11:38:14;;;;;;;1999.90;999.90;;;;;;;18.15;74.63;100978.94;10504758;28;20060;-67
2023/08/31 11:43:18;;;;;;;1999.90;999.90;;;;;;;18.50;77.18;100980.31;10504540;28;20055;-67
2023/08/31 11:48:20;;;;;;;1999.90;999.90;;;;;;;17.98;76.93;100983.88;10502459;28;20484;-67
2023/08/31 11:53:23;;;;;;;1999.90;999.90;;;;;;;19.24;77.10;100971.09;10502923;28;20139;-68
2023/08/31 11:58:27;;;;;;;1999.90;999.90;;;;;;;20.67;70.10;100954.97;10502110;28;20049;-68
2023/08/31 12:03:43;;;;;;;1999.90;999.90;;;;;;;20.68;69.42;100956.66;10503750;28;20044;-68
2023/08/31 12:08:52;;;;;;;1999.90;999.90;;;;;;;20.38;70.23;100953.31;10502517;28;20106;-68
2023/08/31 12:13:55;;;;;;;1999.90;999.90;;;;;;;21.17;67.30;100947.47;10501598;28;20049;-68
2023/08/31 12:18:59;;;;;;;1999.90;999.90;;;;;;;20.53;68.18;100948.31;10501687;28;20376;-67
2023/08/31 12:24:03;;;;;;;1999.90;999.90;;;;;;;21.19;65.68;100951.66;10498224;28;20531;-68
2023/08/31 12:29:06;;;;;;;1999.90;999.90;;;;;;;22.91;62.96;100937.50;10497488;28;20052;-68
2023/08/31 12:34:09;;;;;;;1999.90;999.90;;;;;;;22.84;61.05;100942.66;10498631;28;20534;-68
2023/08/31 12:39:12;;;;;;;1999.90;999.90;;;;;;;22.57;62.24;100944.59;10501371;28;20048;-68
2023/08/31 12:44:14;;;;;;;1999.90;999.90;;;;;;;24.28;61.41;100939.31;10502228;28;20055;-68
2023/08/31 12:49:17;;;;;;;1999.90;999.90;;;;;;;24.01;59.98;100945.94;10501193;28;20056;-68
2023/08/31 12:54:19;;;;;;;1999.90;999.90;;;;;;;24.47;58.21;100938.03;10501887;28;20052;-68
2023/08/31 12:59:22;;;;;;;1999.90;999.90;;;;;;;22.70;62.00;100946.00;10501596;28;20051;-68
2023/08/31 13:04:24;;;;;;;1999.90;999.90;;;;;;;23.99;60.25;100945.28;10501438;28;20052;-68
2023/08/31 13:09:27;;;;;;;1999.90;999.90;;;;;;;24.34;59.29;100942.28;10500516;28;20503;-68
2023/08/31 13:14:30;;;;;;;1999.90;999.90;;;;;;;24.26;58.01;100949.34;10501008;28;20047;-68
2023/08/31 13:19:32;;;;;;;1999.90;999.90;;;;;;;24.95;58.76;100943.28;10500154;28;20508;-68
2023/08/31 13:24:34;;;;;;;1999.90;999.90;;;;;;;23.84;61.53;100949.66;10500494;28;20127;-68
2023/08/31 13:29:37;;;;;;;1999.90;999.90;;;;;;;24.63;56.26;100942.50;10499726;28;20048;-69
2023/08/31 13:34:39;;;;;;;1999.90;999.90;;;;;;;25.28;56.88;100934.97;10500048;28;20049;-68
2023/08/31 13:39:42;;;;;;;1999.90;999.90;;;;;;;24.95;55.90;100931.72;10499315;28;20444;-69
2023/08/31 13:44:44;;;;;;;1999.90;999.90;;;;;;;24.07;58.50;100944.41;10498896;28;20168;-69
2023/08/31 13:49:47;;;;;;;1999.90;999.90;;;;;;;22.41;62.06;100948.09;10499008;28;20053;-69
2023/08/31 13:54:50;;;;;;;1999.90;999.90;;;;;;;22.15;62.77;100956.09;10499321;28;20052;-68
2023/08/31 13:59:53;;;;;;;1999.90;999.90;;;;;;;21.44;64.03;100966.00;10498186;28;20058;-68
2023/08/31 14:04:55;;;;;;;1999.90;999.90;;;;;;;21.45;65.18;100961.50;10498537;28;20044;-68
2023/08/31 14:09:57;;;;;;;1999.90;999.90;;;;;;;21.28;66.36;100966.72;10498956;28;20052;-69
2023/08/31 14:15:03;;;;;;;1999.90;999.90;;;;;;;20.80;65.91;100965.25;10497452;28;20051;-68
2023/08/31 14:20:09;;;;;;;1999.90;999.90;;;;;;;20.74;67.09;100961.38;10497560;28;20139;-68
2023/08/31 14:25:11;;;;;;;1999.90;999.90;;;;;;;22.46;63.57;100952.94;10498475;28;20045;-68
2023/08/31 14:30:14;;;;;;;1999.90;999.90;;;;;;;24.01;60.85;100955.81;10497386;28;20045;-68
2023/08/31 14:35:16;;;;;;;1999.90;999.90;;;;;;;24.98;58.57;100950.09;10496699;28;20052;-68
2023/08/31 14:40:19;;;;;;;1999.90;999.90;;;;;;;24.78;58.63;100950.59;10497649;28;20529;-68
2023/08/31 14:45:21;;;;;;;1999.90;999.90;;;;;;;23.50;58.69;100956.03;10497774;28;20044;-68
2023/08/31 14:50:23;;;;;;;1999.90;999.90;;;;;;;22.25;63.37;100956.81;10497298;28;20052;-68
2023/08/31 14:55:26;;;;;;;1999.90;999.90;;;;;;;22.32;65.47;100965.03;10503117;28;20051;-68
2023/08/31 15:00:28;;;;;;;1999.90;999.90;;;;;;;21.59;63.38;100968.13;10543484;28;20405;-68
2023/08/31 15:05:30;;;;;;;1999.90;999.90;;;;;;;20.91;66.56;100980.16;10504909;28;20060;-68
2023/08/31 15:10:33;;;;;;;1999.90;999.90;;;;;;;20.80;65.65;100972.41;10505457;28;20099;-68
2023/08/31 15:15:35;;;;;;;1999.90;999.90;;;;;;;20.32;66.04;100982.31;10504987;28;20413;-68
2023/08/31 15:20:41;;;;;;;1999.90;999.90;;;;;;;19.80;70.44;100988.09;10504808;28;20497;-68
2023/08/31 15:25:44;;;;;;;1999.90;999.90;;;;;;;19.77;73.18;100991.00;10505404;28;20106;-68
2023/08/31 15:30:46;;;;;;;1999.90;999.90;;;;;;;20.12;71.60;100995.66;10505022;28;20056;-68
2023/08/31 15:35:48;;;;;;;1999.90;999.90;;;;;;;19.92;73.12;101000.22;10504794;28;20101;-67
2023/08/31 15:40:51;;;;;;;1999.90;999.90;;;;;;;19.93;72.64;101003.72;10504223;28;20113;-68
2023/08/31 15:45:53;;;;;;;1999.90;999.90;;;;;;;19.33;74.00;100999.44;10504511;28;20127;-67
2023/08/31 15:50:56;;;;;;;1999.90;999.90;;;;;;;19.62;74.29;100999.41;10503550;28;20059;-67
2023/08/31 15:55:59;;;;;;;1999.90;999.90;;;;;;;20.00;72.37;100991.53;10504088;28;20147;-68
2023/08/31 16:01:01;;;;;;;1999.90;999.90;;;;;;;19.74;74.76;100991.28;10502892;28;20083;-68
2023/08/31 16:06:12;;;;;;;1999.90;999.90;;;;;;;19.47;73.03;100996.34;10502925;28;20044;-68
2023/08/31 16:11:16;;;;;;;1999.90;999.90;;;;;;;19.54;80.21;101004.59;10503697;28;20083;-67
2023/08/31 16:16:23;;;;;;;1999.90;999.90;;;;;;;20.54;74.58;100989.91;10503417;28;20055;-68
2023/08/31 16:21:26;;;;;;;1999.90;999.90;;;;;;;20.06;75.61;101004.25;10503343;28;20102;-68
2023/08/31 16:26:28;;;;;;;1999.90;999.90;;;;;;;19.69;75.95;100999.69;10503044;28;20128;-67
2023/08/31 16:31:32;;;;;;;1999.90;999.90;;;;;;;19.27;80.99;101000.84;10502471;28;20489;-68
2023/08/31 16:36:34;;;;;;;1999.90;999.90;;;;;;;19.29;83.74;100998.03;10500863;28;20473;-68
2023/08/31 16:41:36;;;;;;;1999.90;999.90;;;;;;;19.11;76.06;100998.75;10502573;28;20057;-68
2023/08/31 16:46:39;;;;;;;1999.90;999.90;;;;;;;18.58;88.75;101007.00;10500680;28;20075;-67
2023/08/31 16:51:41;;;;;;;1999.90;999.90;;;;;;;18.70;92.12;101013.84;10501492;28;20056;-68
2023/08/31 16:56:44;;;;;;;1999.90;999.90;;;;;;;18.47;88.95;101012.38;10501857;28;20045;-68
2023/08/31 17:01:46;;;;;;;1999.90;999.90;;;;;;;18.69;82.92;101006.03;10489382;22;20041;-63
2023/08/31 17:06:49;;;;;;;1999.90;999.90;;;;;;;18.83;84.90;101003.03;10441770;28;20448;-63
2023/08/31 17:11:52;;;;;;;1999.90;999.90;;;;;;;18.51;88.83;101009.34;10459402;28;20132;-63
2023/08/31 17:16:54;;;;;;;1999.90;999.90;;;;;;;18.32;88.08;101015.38;10441766;28;20124;-63
2023/08/31 17:21:56;;;;;;;1999.90;999.90;;;;;;;18.20;89.44;101011.16;10458867;28;20490;-63
2023/08/31 17:26:59;;;;;;;1999.90;999.90;;;;;;;18.00;92.36;101012.88;10441724;28;20045;-64
2023/08/31 17:32:03;;;;;;;1999.90;999.90;;;;;;;17.89;93.74;101012.97;10441350;28;20057;-63
2023/08/31 17:37:05;;;;;;;1999.90;999.90;;;;;;;17.76;97.16;101013.97;10458767;28;20048;-63
2023/08/31 17:42:08;;;;;;;1999.90;999.90;;;;;;;17.92;99.39;101021.50;10458663;28;20048;-63
2023/08/31 17:47:10;;;;;;;1999.90;999.90;;;;;;;17.75;98.53;101033.47;10458471;28;20041;-63
2023/08/31 17:52:13;;;;;;;1999.90;999.90;;;;;;;17.67;98.08;101030.63;10424519;28;20045;-63
2023/08/31 17:57:15;;;;;;;1999.90;999.90;;;;;;;17.39;100.00;101040.84;10457405;28;20045;-63
2023/08/31 18:02:18;;;;;;;1999.90;999.90;;;;;;;17.24;99.35;101036.81;10457433;28;20067;-63
2023/08/31 18:07:20;;;;;;;1999.90;999.90;;;;;;;17.09;100.00;101037.09;10440101;28;20056;-63
2023/08/31 18:12:22;;;;;;;1999.90;999.90;;;;;;;16.88;100.00;101041.50;10457583;28;20053;-63
2023/08/31 18:17:25;;;;;;;1999.90;999.90;;;;;;;16.98;97.31;101047.72;10457307;28;20049;-63
2023/08/31 18:22:27;;;;;;;1999.90;999.90;;;;;;;16.67;100.00;101049.28;10456574;28;20478;-63
2023/08/31 18:27:29;;;;;;;1999.90;999.90;;;;;;;16.69;100.00;101053.50;10456025;28;20294;-63
2023/08/31 18:32:33;;;;;;;1999.90;999.90;;;;;;;16.29;100.00;101051.34;10456936;28;20053;-63
2023/08/31 18:37:36;;;;;;;1999.90;999.90;;;;;;;15.99;100.00;101049.25;10456861;28;20049;-63
2023/08/31 18:42:41;;;;;;;1999.90;999.90;;;;;;;15.96;100.00;101054.78;10456118;28;20417;-63
2023/08/31 18:47:44;;;;;;;1999.90;999.90;;;;;;;15.79;100.00;101063.97;10456704;28;20052;-63
2023/08/31 18:52:47;;;;;;;1999.90;999.90;;;;;;;15.56;100.00;101063.84;10456475;28;20057;-63
2023/08/31 18:57:49;;;;;;;1999.90;999.90;;;;;;;15.45;100.00;101055.91;10456536;28;20059;-64
2023/08/31 19:02:52;;;;;;;1999.90;999.90;;;;;;;15.44;100.00;101059.47;10455571;28;20059;-63
2023/08/31 19:07:55;;;;;;;1999.90;999.90;;;;;;;15.37;100.00;101068.81;10455710;28;20045;-62
2023/08/31 19:12:57;;;;;;;1999.90;999.90;;;;;;;15.35;100.00;101063.66;10438514;28;20049;-63
2023/08/31 19:17:59;;;;;;;1999.90;999.90;;;;;;;15.36;100.00;101073.22;10455496;28;20079;-63
2023/08/31 19:23:05;;;;;;;1999.90;999.90;;;;;;;15.39;100.00;101080.09;10438346;28;20049;-63
2023/08/31 19:28:07;;;;;;;1999.90;999.90;;;;;;;15.21;100.00;101084.91;10438354;28;20150;-63
2023/08/31 19:33:10;;;;;;;1999.90;999.90;;;;;;;15.30;100.00;101086.88;10455716;28;20049;-63
2023/08/31 19:38:16;;;;;;;1999.90;999.90;;;;;;;15.44;100.00;101087.69;10455695;28;20136;-63
2023/08/31 19:43:18;;;;;;;1999.90;999.90;;;;;;;15.38;100.00;101094.22;10463403;28;20128;-63
2023/08/31 19:48:22;;;;;;;1999.90;999.90;;;;;;;15.50;100.00;101098.63;10462533;28;20378;-63
2023/08/31 19:53:26;;;;;;;1999.90;999.90;;;;;;;15.45;100.00;101108.66;10462887;28;20098;-63
2023/08/31 19:58:29;;;;;;;1999.90;999.90;;;;;;;15.51;100.00;101099.47;10462819;28;20088;-63
2023/08/31 20:03:37;;;;;;;1999.90;999.90;;;;;;;15.58;100.00;101109.47;10461783;28;20151;-63
2023/08/31 20:08:40;;;;;;;1999.90;999.90;;;;;;;15.32;100.00;101097.31;10445531;28;20053;-63
2023/08/31 20:13:42;;;;;;;1999.90;999.90;;;;;;;15.29;100.00;101101.00;10461441;28;20051;-63
2023/08/31 20:18:46;;;;;;;1999.90;999.90;;;;;;;15.40;100.00;101106.38;10444524;28;20103;-63
2023/08/31 20:23:49;;;;;;;1999.90;999.90;;;;;;;15.28;100.00;101115.19;10444217;28;20063;-63
2023/08/31 20:28:51;;;;;;;1999.90;999.90;;;;;;;15.26;100.00;101117.06;10461570;28;20045;-63
2023/08/31 20:33:56;;;;;;;1999.90;999.90;;;;;;;15.10;100.00;101116.50;10461286;28;20049;-63
2023/08/31 20:38:59;;;;;;;1999.90;999.90;;;;;;;15.11;100.00;101121.63;10461176;28;20057;-63
2023/08/31 20:44:02;;;;;;;1999.90;999.90;;;;;;;14.94;100.00;101122.84;10460398;28;20496;-62
2023/08/31 20:49:05;;;;;;;1999.90;999.90;;;;;;;14.99;100.00;101118.06;10460202;28;20465;-64
2023/08/31 20:54:07;;;;;;;1999.90;999.90;;;;;;;14.87;100.00;101116.31;10442566;28;20051;-63
2023/08/31 20:59:11;;;;;;;1999.90;999.90;;;;;;;14.91;100.00;101111.66;10460389;28;20059;-62
2023/08/31 21:04:13;;;;;;;1999.90;999.90;;;;;;;14.71;100.00;101110.44;10459494;28;20056;-63
2023/08/31 21:09:16;;;;;;;1999.90;999.90;;;;;;;14.81;100.00;101112.34;10441744;28;20448;-63
2023/08/31 21:14:18;;;;;;;1999.90;999.90;;;;;;;14.58;100.00;101120.97;10459763;28;20052;-63
2023/08/31 21:19:21;;;;;;;1999.90;999.90;;;;;;;14.78;100.00;101124.88;10441218;28;20401;-63
2023/08/31 21:24:23;;;;;;;1999.90;999.90;;;;;;;14.64;100.00;101115.28;10458766;28;20045;-63
2023/08/31 21:29:25;;;;;;;1999.90;999.90;;;;;;;14.75;100.00;101118.03;10459171;28;20059;-62
2023/08/31 21:34:28;;;;;;;1999.90;999.90;;;;;;;14.73;100.00;101116.47;10441426;28;20051;-63
2023/08/31 21:39:30;;;;;;;1999.90;999.90;;;;;;;14.89;100.00;101109.13;10458771;28;20055;-63
2023/08/31 21:44:32;;;;;;;1999.90;999.90;;;;;;;14.92;100.00;101108.09;10457991;28;20513;-62
2023/08/31 21:49:35;;;;;;;1999.90;999.90;;;;;;;14.82;100.00;101103.44;10458395;28;20056;-63